createdAt,value
2023-02-05T00:04:49.098Z,3.40
2023-02-05T00:10:54.484Z,3.75
2023-02-05T00:16:56.256Z,7.10
2023-02-05T00:22:58.183Z,7.78
2023-02-05T00:28:59.958Z,7.50
2023-02-05T00:35:01.705Z,10.93
2023-02-05T00:41:04.460Z,9.57
2023-02-05T00:47:06.354Z,13.75
2023-02-05T00:53:08.098Z,9.63
2023-02-05T00:59:09.895Z,8.43
2023-02-05T01:05:12.386Z,9.27
2023-02-05T01:11:15.203Z,7.20
2023-02-05T01:17:17.273Z,5.20
2023-02-05T01:23:18.999Z,5.43
2023-02-05T01:29:20.763Z,7.88
2023-02-05T01:35:22.607Z,3.92
2023-02-05T01:41:24.591Z,4.30
2023-02-05T01:47:26.411Z,4.57
2023-02-05T01:53:31.584Z,4.68
2023-02-05T01:59:36.258Z,6.63
2023-02-05T02:11:43.014Z,7.20
2023-02-05T02:17:47.710Z,5.72
2023-02-05T02:30:26.158Z,4.18
2023-02-05T02:36:35.683Z,5.15
2023-02-05T02:42:49.125Z,5.63
2023-02-05T02:48:56.217Z,7.55
2023-02-05T02:55:05.614Z,8.98
2023-02-05T03:01:11.557Z,10.38
2023-02-05T03:07:16.366Z,8.38
2023-02-05T03:19:21.545Z,9.80
2023-02-05T03:25:25.321Z,9.50
2023-02-05T03:31:45.469Z,9.60
2023-02-05T03:38:08.256Z,7.50
2023-02-05T03:44:19.131Z,7.18
2023-02-05T03:50:33.640Z,6.32
2023-02-05T03:57:01.057Z,9.18
2023-02-05T04:03:02.905Z,9.02
2023-02-05T04:09:05.004Z,7.57
2023-02-05T04:15:09.101Z,10.45
2023-02-05T04:21:11.017Z,8.82
2023-02-05T04:27:14.014Z,7.97
2023-02-05T04:33:17.009Z,6.35
2023-02-05T04:39:18.890Z,8.70
2023-02-05T04:45:20.684Z,7.95
2023-02-05T04:51:22.669Z,11.32
2023-02-05T04:57:24.611Z,8.60
2023-02-05T05:03:26.494Z,9.02
2023-02-05T05:09:28.559Z,9.55
2023-02-05T05:15:30.505Z,11.63
2023-02-05T05:21:32.486Z,16.00
2023-02-05T05:27:34.309Z,12.35
2023-02-05T05:33:36.687Z,13.18
2023-02-05T05:39:56.985Z,17.20
2023-02-05T05:45:58.953Z,13.60
2023-02-05T05:52:00.902Z,9.23
2023-02-05T05:58:02.721Z,8.88
2023-02-05T06:04:04.864Z,8.50
2023-02-05T06:10:07.229Z,10.07
2023-02-05T06:16:09.239Z,5.80
2023-02-05T06:22:11.072Z,7.72
2023-02-05T06:28:13.186Z,7.65
2023-02-05T06:34:15.194Z,8.88
2023-02-05T06:40:22.490Z,11.55
2023-02-05T06:46:24.498Z,16.67
2023-02-05T06:52:27.060Z,11.32
2023-02-05T06:58:29.598Z,8.65
2023-02-05T07:04:32.224Z,10.95
2023-02-05T07:10:34.364Z,10.93
2023-02-05T07:16:36.521Z,10.90
2023-02-05T07:22:38.972Z,8.90
2023-02-05T07:28:41.484Z,10.40
2023-02-05T07:34:44.700Z,11.40
2023-02-05T07:40:46.534Z,13.43
2023-02-05T07:46:48.764Z,11.52
2023-02-05T07:52:50.756Z,12.23
2023-02-05T07:58:52.732Z,14.15
2023-02-05T08:04:54.499Z,13.93
2023-02-05T08:11:02.838Z,13.43
2023-02-05T08:17:06.253Z,12.07
2023-02-05T08:23:08.151Z,12.73
2023-02-05T08:29:11.149Z,15.70
2023-02-05T08:35:13.079Z,12.35
2023-02-05T08:41:15.653Z,19.73
2023-02-05T08:47:21.410Z,17.58
2023-02-05T08:53:23.400Z,128.98
2023-02-05T08:59:27.610Z,104.03
2023-02-05T09:05:29.595Z,103.43
2023-02-05T09:11:31.621Z,58.63
2023-02-05T09:17:34.108Z,113.38
2023-02-05T09:23:38.989Z,48.28
2023-02-05T09:29:42.037Z,42.60
2023-02-05T09:35:44.563Z,67.32
2023-02-05T09:42:01.041Z,21.45
2023-02-05T09:48:28.154Z,13.25
2023-02-05T09:54:35.423Z,15.65
2023-02-05T10:00:46.861Z,11.55
2023-02-05T10:07:19.529Z,11.80
2023-02-05T10:13:41.349Z,11.52
2023-02-05T10:20:04.089Z,14.95
2023-02-05T10:26:12.477Z,7.80
2023-02-05T10:32:26.098Z,8.95
2023-02-05T10:38:34.021Z,11.18
2023-02-05T10:44:42.847Z,13.25
2023-02-05T10:51:05.174Z,21.25
2023-02-05T10:57:16.155Z,16.15
2023-02-05T11:03:20.055Z,19.00
2023-02-05T11:09:25.363Z,23.60
2023-02-05T11:15:30.619Z,20.45
2023-02-05T11:21:47.717Z,18.08
2023-02-05T11:27:58.179Z,10.60
2023-02-05T11:34:09.066Z,14.85
2023-02-05T11:40:28.162Z,16.58
2023-02-05T11:46:35.023Z,13.05
2023-02-05T11:52:38.134Z,19.58
2023-02-05T11:58:40.415Z,14.27
2023-02-05T12:04:48.461Z,15.43
2023-02-05T12:11:19.397Z,17.10
2023-02-05T12:17:36.446Z,12.85
2023-02-05T12:24:01.590Z,15.05
2023-02-05T12:30:40.629Z,15.27
2023-02-05T12:37:01.801Z,14.82
2023-02-05T12:43:06.984Z,14.18
2023-02-05T12:49:33.314Z,23.25
2023-02-05T12:55:56.275Z,13.68
2023-02-05T13:02:20.021Z,22.77
2023-02-05T13:08:43.084Z,18.77
2023-02-05T13:14:49.522Z,24.45
2023-02-05T13:21:26.872Z,27.77
2023-02-05T13:27:52.899Z,31.63
2023-02-05T13:34:00.818Z,34.97
2023-02-05T13:40:40.779Z,31.77
2023-02-05T13:46:54.665Z,27.00
2023-02-05T13:53:37.805Z,26.70
2023-02-05T13:59:51.690Z,26.42
2023-02-05T14:05:53.884Z,29.33
2023-02-05T14:12:01.599Z,28.92
2023-02-05T14:18:03.705Z,32.17
2023-02-05T14:24:38.054Z,27.88
2023-02-05T14:30:52.986Z,28.87
2023-02-05T14:36:55.400Z,30.77
2023-02-05T14:43:24.460Z,36.17
2023-02-05T14:49:34.227Z,42.28
2023-02-05T14:55:40.728Z,36.38
2023-02-05T15:01:44.804Z,30.33
2023-02-05T15:07:49.132Z,32.45
2023-02-05T15:14:21.757Z,32.08
2023-02-05T15:20:27.792Z,44.75
2023-02-05T15:26:35.443Z,27.90
2023-02-05T15:32:52.767Z,38.55
2023-02-05T15:39:36.828Z,42.83
2023-02-05T15:45:44.936Z,30.73
2023-02-05T15:51:48.235Z,38.45
2023-02-05T15:57:51.518Z,40.38
2023-02-05T16:03:54.360Z,32.28
2023-02-05T16:10:01.992Z,35.80
2023-02-05T16:16:24.242Z,31.92
2023-02-05T16:22:41.177Z,34.33
2023-02-05T16:29:03.010Z,33.33
2023-02-05T16:35:08.644Z,33.90
2023-02-05T16:41:40.350Z,31.83
2023-02-05T16:47:42.398Z,33.38
2023-02-05T16:53:49.916Z,36.30
2023-02-05T17:00:05.283Z,38.08
2023-02-05T17:06:15.898Z,40.22
2023-02-05T17:12:38.827Z,42.47
2023-02-05T17:18:42.173Z,59.83
2023-02-05T17:24:46.996Z,47.72
2023-02-05T17:30:50.381Z,50.42
2023-02-05T17:36:52.665Z,51.28
2023-02-05T17:42:54.917Z,50.45
2023-02-05T17:48:57.276Z,49.60
2023-02-05T17:54:59.325Z,45.90
2023-02-05T18:01:01.583Z,44.42
2023-02-05T18:07:03.997Z,45.35
2023-02-05T18:13:06.327Z,53.55
2023-02-05T18:19:08.348Z,49.20
2023-02-05T18:25:10.307Z,43.78
2023-02-05T18:31:12.844Z,51.28
2023-02-05T18:37:17.566Z,48.53
2023-02-05T18:49:22.305Z,50.38
2023-02-05T18:55:24.624Z,57.20
2023-02-05T19:01:29.324Z,56.80
2023-02-05T19:13:33.536Z,49.80
2023-02-05T19:19:35.880Z,49.20
2023-02-05T19:25:39.495Z,42.45
2023-02-05T19:31:42.761Z,42.85
2023-02-05T19:37:44.822Z,47.30
2023-02-05T19:43:52.502Z,47.58
2023-02-05T19:49:54.995Z,45.00
2023-02-05T19:56:07.433Z,40.58
2023-02-05T20:02:17.865Z,42.45
2023-02-05T20:08:20.777Z,41.13
2023-02-05T20:14:24.270Z,37.72
2023-02-05T20:20:33.537Z,31.52
2023-02-05T20:26:37.556Z,39.38
2023-02-05T20:32:39.866Z,35.40
2023-02-05T20:38:42.350Z,35.13
2023-02-05T20:44:44.896Z,34.17
2023-02-05T20:50:47.148Z,39.33
2023-02-05T20:56:57.391Z,42.35
2023-02-05T21:03:00.321Z,30.77
2023-02-05T21:09:02.253Z,40.42
2023-02-05T21:15:04.263Z,41.38
2023-02-05T21:21:17.334Z,37.78
2023-02-05T21:27:21.913Z,36.47
2023-02-05T21:33:23.789Z,32.90
2023-02-05T21:39:25.871Z,41.08
2023-02-05T21:45:27.783Z,42.90
2023-02-05T21:51:31.867Z,40.30
2023-02-05T21:57:33.775Z,28.98
2023-02-05T22:03:35.556Z,31.27
2023-02-05T22:09:37.373Z,30.70
2023-02-05T22:15:39.123Z,34.50
2023-02-05T22:21:42.767Z,28.10
2023-02-05T22:27:44.572Z,31.02
2023-02-05T22:33:48.481Z,30.75
2023-02-05T22:39:50.276Z,31.43
2023-02-05T22:45:52.074Z,36.67
2023-02-05T22:51:53.965Z,30.38
2023-02-05T22:57:55.771Z,45.53
2023-02-05T23:03:58.218Z,38.22
2023-02-05T23:10:00.001Z,39.95
2023-02-05T23:16:11.476Z,33.72
2023-02-05T23:22:13.305Z,38.05
2023-02-05T23:28:16.173Z,44.45
2023-02-05T23:34:18.059Z,39.17
2023-02-05T23:40:19.914Z,37.63
2023-02-05T23:46:21.724Z,41.95
2023-02-05T23:52:23.454Z,33.42
2023-02-05T23:58:26.055Z,37.33
